createdAt,value
2023-04-11T00:00:28.168Z,0.0000
2023-04-11T00:01:31.562Z,0.0000
2023-04-11T00:02:35.117Z,0.0000
2023-04-11T00:03:35.497Z,0.0000
2023-04-11T00:04:35.671Z,0.0000
2023-04-11T00:05:35.660Z,0.0000
2023-04-11T00:06:39.021Z,0.0000
2023-04-11T00:07:42.473Z,0.0000
2023-04-11T00:08:45.822Z,0.0000
2023-04-11T00:09:49.235Z,0.0000
2023-04-11T00:10:52.597Z,0.0000
2023-04-11T00:11:55.977Z,0.0000
2023-04-11T00:12:59.348Z,0.0000
2023-04-11T00:14:02.897Z,0.0000
2023-04-11T00:15:02.766Z,0.0000
2023-04-11T00:16:06.137Z,0.0000
2023-04-11T00:17:09.533Z,0.0000
2023-04-11T00:18:13.008Z,0.0000
2023-04-11T00:19:13.035Z,0.0000
2023-04-11T00:20:16.526Z,0.0000
2023-04-11T00:21:19.892Z,0.0000
2023-04-11T00:22:23.242Z,0.0000
2023-04-11T00:23:26.708Z,0.0000
2023-04-11T00:24:30.062Z,0.0000
2023-04-11T00:25:33.467Z,0.0000
2023-04-11T00:26:36.839Z,0.0000
2023-04-11T00:27:40.219Z,0.0000
2023-04-11T00:28:43.789Z,0.0000
2023-04-11T00:29:43.635Z,0.0000
2023-04-11T00:30:47.018Z,0.0000
2023-04-11T00:31:50.430Z,0.0000
2023-04-11T00:32:53.959Z,0.0000
2023-04-11T00:33:54.266Z,0.0000
2023-04-11T00:34:57.750Z,0.0000
2023-04-11T00:36:01.364Z,0.0000
2023-04-11T00:37:04.786Z,0.0000
2023-04-11T00:38:08.131Z,0.0000
2023-04-11T00:39:11.520Z,0.0000
2023-04-11T00:40:14.893Z,0.0000
2023-04-11T00:41:18.606Z,0.0000
2023-04-11T00:42:18.485Z,0.0000
2023-04-11T00:43:21.873Z,0.0000
2023-04-11T00:44:25.249Z,0.0000
2023-04-11T00:45:28.678Z,0.0000
2023-04-11T00:46:32.051Z,0.0000
2023-04-11T00:47:35.563Z,0.0000
2023-04-11T00:48:35.443Z,0.0000
2023-04-11T00:49:38.813Z,0.0000
2023-04-11T00:50:42.170Z,0.0000
2023-04-11T00:51:45.575Z,0.0000
2023-04-11T00:52:48.938Z,0.0000
2023-04-11T00:53:49.130Z,0.0000
2023-04-11T00:54:48.981Z,0.0000
2023-04-11T00:55:52.391Z,0.0000
2023-04-11T00:56:55.782Z,0.0000
2023-04-11T00:57:59.176Z,0.0000
2023-04-11T00:59:02.550Z,0.0000
2023-04-11T01:00:05.984Z,0.0000
2023-04-11T01:01:09.680Z,0.0000
2023-04-11T01:02:09.694Z,0.0000
2023-04-11T01:03:09.793Z,0.0000
2023-04-11T01:04:09.742Z,0.0000
2023-04-11T01:05:13.217Z,0.0000
2023-04-11T01:06:16.743Z,0.0000
2023-04-11T01:07:16.591Z,0.0000
2023-04-11T01:08:19.985Z,0.0000
2023-04-11T01:09:20.090Z,0.0000
2023-04-11T01:10:23.468Z,0.0000
2023-04-11T01:11:27.045Z,0.0000
2023-04-11T01:12:27.182Z,0.0000
2023-04-11T01:13:27.044Z,0.0000
2023-04-11T01:14:30.576Z,0.0000
2023-04-11T01:15:30.437Z,0.0000
2023-04-11T01:16:33.868Z,0.0000
2023-04-11T01:17:37.456Z,0.0000
2023-04-11T01:18:37.339Z,0.0000
2023-04-11T01:19:40.716Z,0.0000
2023-04-11T01:20:44.088Z,0.0000
2023-04-11T01:21:47.470Z,0.0000
2023-04-11T01:22:50.987Z,0.0000
2023-04-11T01:23:50.838Z,0.0000
2023-04-11T01:24:54.252Z,0.0000
2023-04-11T01:25:57.604Z,0.0000
2023-04-11T01:27:01.001Z,0.0000
2023-04-11T01:28:04.481Z,0.0000
2023-04-11T01:29:07.876Z,0.0000
2023-04-11T01:30:11.233Z,0.0000
2023-04-11T01:31:14.699Z,0.0000
2023-04-11T01:32:18.106Z,0.0000
2023-04-11T01:33:21.494Z,0.0000
2023-04-11T01:34:25.055Z,0.0000
2023-04-11T01:35:24.955Z,0.0000
2023-04-11T01:36:28.318Z,0.0000
2023-04-11T01:37:31.675Z,0.0000
2023-04-11T01:38:35.071Z,0.0000
2023-04-11T01:39:38.434Z,0.0000
2023-04-11T01:40:41.981Z,0.0000
2023-04-11T01:41:41.831Z,0.0000
2023-04-11T01:42:45.235Z,0.0000
2023-04-11T01:43:48.990Z,0.0000
2023-04-11T01:44:52.383Z,0.0000
2023-04-11T01:45:55.745Z,0.0000
2023-04-11T01:46:59.308Z,0.0000
2023-04-11T01:47:59.260Z,0.0000
2023-04-11T01:48:59.325Z,0.0000
2023-04-11T01:49:59.283Z,0.0000
2023-04-11T01:51:02.666Z,0.0000
2023-04-11T01:52:06.301Z,0.0000
2023-04-11T01:53:06.163Z,0.0000
2023-04-11T01:54:06.320Z,0.0000
2023-04-11T01:55:09.722Z,0.0000
2023-04-11T01:56:13.105Z,0.0000
2023-04-11T01:57:16.463Z,0.0000
2023-04-11T01:58:19.957Z,0.0000
2023-04-11T01:59:23.340Z,0.0000
2023-04-11T02:00:26.734Z,0.0000
2023-04-11T02:01:30.172Z,0.0000
2023-04-11T02:02:33.571Z,0.0000
2023-04-11T02:03:37.143Z,0.0000
2023-04-11T02:04:37.367Z,0.0000
2023-04-11T02:05:37.755Z,0.0000
2023-04-11T02:06:37.880Z,0.0000
2023-04-11T02:07:41.238Z,0.0000
2023-04-11T02:08:44.633Z,0.0000
2023-04-11T02:09:48.005Z,0.0000
2023-04-11T02:10:51.424Z,0.0000
2023-04-11T02:11:54.801Z,0.0000
2023-04-11T02:12:58.206Z,0.0000
2023-04-11T02:14:01.621Z,0.0000
2023-04-11T02:15:05.055Z,0.0000
2023-04-11T02:16:08.587Z,0.0000
2023-04-11T02:17:08.500Z,0.0000
2023-04-11T02:18:11.940Z,0.0000
2023-04-11T02:19:15.335Z,0.0000
2023-04-11T02:20:18.776Z,0.0000
2023-04-11T02:21:22.180Z,0.0000
2023-04-11T02:22:25.585Z,0.0000
2023-04-11T02:23:29.008Z,0.0000
2023-04-11T02:24:29.062Z,0.0000
2023-04-11T02:25:32.488Z,0.0000
2023-04-11T02:26:35.893Z,0.0000
2023-04-11T02:27:39.308Z,0.0000
2023-04-11T02:28:42.719Z,0.0000
2023-04-11T02:29:42.849Z,0.0000
2023-04-11T02:30:46.335Z,0.0000
2023-04-11T02:31:49.862Z,0.0000
2023-04-11T02:32:49.911Z,0.0000
2023-04-11T02:33:49.858Z,0.0000
2023-04-11T02:34:53.267Z,0.0000
2023-04-11T02:35:56.712Z,0.0000
2023-04-11T02:37:00.106Z,0.0000
2023-04-11T02:38:03.539Z,0.0000
2023-04-11T02:39:06.948Z,0.0000
2023-04-11T02:40:10.465Z,0.0000
2023-04-11T02:41:10.359Z,0.0000
2023-04-11T02:42:10.519Z,0.0000
2023-04-11T02:43:13.926Z,0.0000
2023-04-11T02:44:17.346Z,0.0000
2023-04-11T02:45:20.766Z,0.0000
2023-04-11T02:46:24.234Z,0.0000
2023-04-11T02:47:24.467Z,0.0000
2023-04-11T02:48:27.866Z,0.0000
2023-04-11T02:49:28.113Z,0.0000
2023-04-11T02:50:31.493Z,0.0000
2023-04-11T02:51:34.957Z,0.0000
2023-04-11T02:52:38.345Z,0.0000
2023-04-11T02:53:41.778Z,0.0000
2023-04-11T02:54:45.221Z,0.0000
2023-04-11T02:55:48.711Z,0.0000
2023-04-11T02:56:48.612Z,0.0000
2023-04-11T02:57:52.051Z,0.0000
2023-04-11T02:58:55.694Z,0.0000
2023-04-11T02:59:55.745Z,0.0000
2023-04-11T03:00:59.182Z,0.0000
2023-04-11T03:01:59.433Z,0.0000
2023-04-11T03:02:59.612Z,0.0000
2023-04-11T03:04:03.114Z,0.0000
2023-04-11T03:05:03.016Z,0.0000
2023-04-11T03:06:06.437Z,0.0000
2023-04-11T03:07:06.635Z,0.0000
2023-04-11T03:08:10.053Z,0.0000
2023-04-11T03:09:13.499Z,0.0000
2023-04-11T03:10:16.884Z,0.0000
2023-04-11T03:11:20.315Z,0.0000
2023-04-11T03:12:23.727Z,0.0000
2023-04-11T03:13:27.159Z,0.0000
2023-04-11T03:14:30.610Z,0.0000
2023-04-11T03:15:33.997Z,0.0000
2023-04-11T03:16:37.425Z,0.0000
2023-04-11T03:17:40.845Z,0.0000
2023-04-11T03:18:44.279Z,0.0000
2023-04-11T03:19:47.721Z,0.0000
2023-04-11T03:20:51.187Z,0.0000
2023-04-11T03:21:54.619Z,0.0000
2023-04-11T03:22:58.034Z,0.0000
2023-04-11T03:24:01.474Z,0.0000
2023-04-11T03:25:05.266Z,0.0000
2023-04-11T03:26:05.176Z,0.0000
2023-04-11T03:27:08.599Z,0.0000
2023-04-11T03:28:12.034Z,0.0000
2023-04-11T03:29:15.454Z,0.0000
2023-04-11T03:30:18.888Z,0.0000
2023-04-11T03:31:22.356Z,0.0000
2023-04-11T03:32:22.354Z,0.0000
2023-04-11T03:33:25.766Z,0.0000
2023-04-11T03:34:29.222Z,0.0000
2023-04-11T03:35:32.681Z,0.0000
2023-04-11T03:36:36.080Z,0.0000
2023-04-11T03:37:39.496Z,0.0000
2023-04-11T03:38:42.898Z,0.0000
2023-04-11T03:39:46.348Z,0.0000
2023-04-11T03:40:49.750Z,0.0000
2023-04-11T03:41:53.197Z,0.0000
2023-04-11T03:42:56.627Z,0.0000
2023-04-11T03:44:00.057Z,0.0000
2023-04-11T03:45:00.246Z,0.0000
2023-04-11T03:46:03.626Z,0.0000
2023-04-11T03:47:07.039Z,0.0000
2023-04-11T03:48:10.509Z,0.0000
2023-04-11T03:49:13.929Z,0.0000
2023-04-11T03:50:17.416Z,0.0000
2023-04-11T03:51:20.827Z,0.0000
2023-04-11T03:52:20.948Z,0.0000
2023-04-11T03:53:24.416Z,0.0000
2023-04-11T03:54:26.257Z,0.0000
2023-04-11T03:55:26.173Z,0.0000
2023-04-11T03:56:29.636Z,0.0000
2023-04-11T03:57:29.767Z,0.0000
2023-04-11T03:58:33.159Z,0.0000
2023-04-11T03:59:36.554Z,0.0000
2023-04-11T04:00:39.995Z,0.0000
2023-04-11T04:01:43.484Z,0.0000
2023-04-11T04:02:43.553Z,0.0000
2023-04-11T04:03:43.793Z,0.0000
2023-04-11T04:04:44.219Z,0.0000
2023-04-11T04:05:44.227Z,0.0000
2023-04-11T04:06:44.461Z,0.0000
2023-04-11T04:07:47.876Z,0.0000
2023-04-11T04:08:51.296Z,0.0000
2023-04-11T04:09:54.773Z,0.0000
2023-04-11T04:10:58.165Z,0.0000
2023-04-11T04:12:01.566Z,0.0000
2023-04-11T04:13:04.994Z,0.0000
2023-04-11T04:14:08.406Z,0.0000
2023-04-11T04:15:11.972Z,0.0000
2023-04-11T04:16:11.924Z,0.0000
2023-04-11T04:17:15.353Z,0.0000
2023-04-11T04:18:18.782Z,0.0000
2023-04-11T04:19:22.227Z,0.0000
2023-04-11T04:20:25.652Z,0.0000
2023-04-11T04:21:29.054Z,0.0000
2023-04-11T04:22:32.465Z,0.0000
2023-04-11T04:23:35.896Z,0.0000
2023-04-11T04:24:39.310Z,0.0000
2023-04-11T04:25:42.758Z,0.0000
2023-04-11T04:26:46.179Z,0.2222
2023-04-11T04:27:49.578Z,3.7778
2023-04-11T04:28:53.016Z,3.7778
2023-04-11T04:29:59.874Z,0.7059
2023-04-11T04:30:55.734Z,4.2500
2023-04-11T04:31:59.193Z,6.2222
2023-04-11T04:33:02.629Z,7.5556
2023-04-11T04:34:06.063Z,7.5556
2023-04-11T04:35:09.508Z,7.5556
2023-04-11T04:36:12.946Z,10.8889
2023-04-11T04:37:16.351Z,15.7778
2023-04-11T04:38:19.810Z,22.0000
2023-04-11T04:39:23.244Z,19.1111
2023-04-11T04:40:26.649Z,14.8889
2023-04-11T04:41:30.089Z,15.1111
2023-04-11T04:42:33.809Z,12.4444
2023-04-11T04:43:33.748Z,12.9412
2023-04-11T04:44:37.217Z,20.8889
2023-04-11T04:45:40.728Z,22.6667
2023-04-11T04:46:40.654Z,16.2353
2023-04-11T04:47:44.116Z,12.4444
2023-04-11T04:48:47.661Z,12.4444
2023-04-11T04:49:47.622Z,15.0588
2023-04-11T04:50:51.041Z,22.6667
2023-04-11T04:51:54.444Z,40.0000
2023-04-11T04:52:57.886Z,52.2222
2023-04-11T04:54:01.262Z,60.8889
2023-04-11T04:55:04.683Z,65.1111
2023-04-11T04:56:08.238Z,75.1111
2023-04-11T04:57:08.173Z,84.2353
2023-04-11T04:58:11.597Z,98.4444
2023-04-11T04:59:15.099Z,100.4444
2023-04-11T05:00:18.895Z,81.3333
2023-04-11T05:01:19.634Z,84.7059
2023-04-11T05:02:23.446Z,92.8889
2023-04-11T05:03:23.646Z,105.1765
2023-04-11T05:04:23.697Z,117.1765
2023-04-11T05:05:27.103Z,144.6667
2023-04-11T05:06:30.575Z,180.2222
2023-04-11T05:07:34.004Z,216.0000
2023-04-11T05:08:37.414Z,242.6667
2023-04-11T05:09:40.820Z,238.2222
2023-04-11T05:10:44.237Z,262.2222
2023-04-11T05:11:47.649Z,293.7778
2023-04-11T05:12:51.123Z,314.6667
2023-04-11T05:13:54.597Z,347.7778
2023-04-11T05:14:54.859Z,390.5882
2023-04-11T05:15:54.850Z,400.0000
2023-04-11T05:16:58.342Z,435.1111
2023-04-11T05:17:58.341Z,459.2941
2023-04-11T05:19:01.764Z,432.8889
2023-04-11T05:20:01.982Z,386.8235
2023-04-11T05:21:05.460Z,350.8889
2023-04-11T05:22:05.348Z,356.4706
2023-04-11T05:23:08.771Z,390.2222
2023-04-11T05:24:12.167Z,449.7778
2023-04-11T05:25:12.332Z,533.1765
2023-04-11T05:26:15.724Z,664.4445
2023-04-11T05:27:19.157Z,731.5555
2023-04-11T05:28:22.593Z,818.2222
2023-04-11T05:29:26.011Z,863.5555
2023-04-11T05:30:29.432Z,898.8889
2023-04-11T05:31:32.839Z,877.7778
2023-04-11T05:32:36.266Z,802.0000
2023-04-11T05:33:39.728Z,718.2222
2023-04-11T05:34:43.123Z,633.7778
2023-04-11T05:35:46.596Z,548.4445
2023-04-11T05:36:49.993Z,560.0000
2023-04-11T05:37:53.428Z,669.1111
2023-04-11T05:38:56.838Z,837.5555
2023-04-11T05:40:00.456Z,1049.7778
2023-04-11T05:41:00.390Z,1230.5883
2023-04-11T05:42:04.122Z,1405.7778
2023-04-11T05:43:04.669Z,1658.3529
2023-04-11T05:44:08.090Z,1961.5555
2023-04-11T05:45:11.591Z,2154.0000
2023-04-11T05:46:15.035Z,2495.3333
2023-04-11T05:47:14.979Z,2345.6470
2023-04-11T05:48:18.391Z,1989.1111
2023-04-11T05:49:21.808Z,1921.7778
2023-04-11T05:50:25.263Z,1911.1111
2023-04-11T05:51:28.669Z,1997.3334
2023-04-11T05:52:28.967Z,2042.1177
2023-04-11T05:53:32.395Z,2095.5557
2023-04-11T05:54:32.540Z,1893.4117
2023-04-11T05:55:35.943Z,1934.0000
2023-04-11T05:56:39.989Z,2093.1111
2023-04-11T05:57:39.927Z,2227.0588
2023-04-11T05:58:43.338Z,2172.2222
2023-04-11T05:59:46.787Z,2083.3333
2023-04-11T06:00:50.208Z,1962.2222
2023-04-11T06:01:53.627Z,2039.1111
2023-04-11T06:02:57.082Z,2345.3333
2023-04-11T06:04:00.988Z,2968.8889
2023-04-11T06:05:01.276Z,3467.2942
2023-04-11T06:06:01.213Z,4318.3530
2023-04-11T06:07:04.673Z,4892.4443
2023-04-11T06:08:08.066Z,5324.6665
2023-04-11T06:09:11.541Z,5464.6665
2023-04-11T06:10:11.532Z,5366.8237
2023-04-11T06:11:15.059Z,4933.1113
2023-04-11T06:12:15.286Z,4130.3530
2023-04-11T06:13:15.237Z,3585.1765
2023-04-11T06:14:18.698Z,2998.8889
2023-04-11T06:15:22.852Z,2854.2222
2023-04-11T06:16:22.971Z,3150.3530
2023-04-11T06:17:23.082Z,3543.5293
2023-04-11T06:18:22.990Z,3515.7646
2023-04-11T06:19:26.672Z,3319.1111
2023-04-11T06:20:26.612Z,2895.0588
2023-04-11T06:21:30.075Z,2923.7778
2023-04-11T06:22:31.105Z,2661.1765
2023-04-11T06:23:31.561Z,2396.0000
2023-04-11T06:24:31.856Z,2444.2354
2023-04-11T06:25:32.010Z,2739.7646
2023-04-11T06:26:32.047Z,2955.2942
2023-04-11T06:27:31.965Z,3152.2354
2023-04-11T06:28:35.491Z,3597.5557
2023-04-11T06:29:35.481Z,3911.7646
2023-04-11T06:30:35.529Z,4100.7061
2023-04-11T06:31:36.575Z,4243.0586
2023-04-11T06:32:36.564Z,4284.4707
2023-04-11T06:33:36.571Z,4477.6470
2023-04-11T06:34:36.808Z,3804.9412
2023-04-11T06:35:36.845Z,3336.0000
2023-04-11T06:36:38.349Z,3011.5293
2023-04-11T06:37:38.740Z,2680.9412
2023-04-11T06:38:38.804Z,2742.3530
2023-04-11T06:39:38.783Z,3581.8823
2023-04-11T06:40:43.109Z,4697.1113
2023-04-11T06:41:43.053Z,5052.2354
2023-04-11T06:42:43.240Z,5918.5884
2023-04-11T06:43:43.219Z,5581.6470
2023-04-11T06:44:43.420Z,5258.1177
2023-04-11T06:45:46.948Z,4209.3335
2023-04-11T06:46:47.068Z,3968.9412
2023-04-11T06:47:47.205Z,4116.0000
2023-04-11T06:48:47.274Z,4002.3530
2023-04-11T06:49:48.236Z,3641.4119
2023-04-11T06:50:48.884Z,3299.0588
2023-04-11T06:51:48.829Z,3153.4119
2023-04-11T06:52:48.814Z,3784.4707
2023-04-11T06:53:52.323Z,4151.3335
2023-04-11T06:56:21.019Z,4052.0000
2023-04-11T06:56:56.607Z,4556.7998
2023-04-11T06:57:56.488Z,4072.7058
2023-04-11T06:58:59.916Z,4145.7778
2023-04-11T07:00:03.416Z,4447.7778
2023-04-11T07:01:06.790Z,4355.7778
2023-04-11T07:02:10.294Z,3490.4443
2023-04-11T07:03:12.163Z,3075.5293
2023-04-11T07:04:12.371Z,2587.0588
2023-04-11T07:05:12.446Z,2387.2942
2023-04-11T07:06:15.885Z,2340.8889
2023-04-11T07:07:19.468Z,2635.3333
2023-04-11T07:08:19.394Z,2806.3530
2023-04-11T07:09:22.814Z,3535.5557
2023-04-11T07:10:26.222Z,5111.7778
2023-04-11T07:11:29.708Z,5370.0000
2023-04-11T07:12:29.657Z,5939.2939
2023-04-11T07:13:33.069Z,5520.8887
2023-04-11T07:14:36.495Z,4213.5557
2023-04-11T07:15:39.895Z,5289.3335
2023-04-11T07:16:43.454Z,6379.7778
2023-04-11T07:17:43.618Z,6427.5293
2023-04-11T07:18:43.514Z,6059.0586
2023-04-11T07:19:46.975Z,5426.6665
2023-04-11T07:20:50.387Z,5880.4443
2023-04-11T07:21:53.805Z,4934.2222
2023-04-11T07:22:57.241Z,4431.7778
2023-04-11T07:24:00.924Z,4872.4443
2023-04-11T07:25:00.904Z,4399.5293
2023-04-11T07:26:04.338Z,6048.0000
2023-04-11T07:27:07.753Z,6758.4443
2023-04-11T07:28:11.333Z,6312.4443
2023-04-11T07:29:13.951Z,6498.1177
2023-04-11T07:30:14.655Z,7273.4116
2023-04-11T07:31:18.092Z,6205.1113
2023-04-11T07:32:21.530Z,4238.2222
2023-04-11T07:33:24.925Z,4623.1113
2023-04-11T07:34:28.372Z,5416.0000
2023-04-11T07:35:31.887Z,5886.4443
2023-04-11T07:36:31.833Z,5438.3530
2023-04-11T07:37:31.907Z,4692.2354
2023-04-11T07:38:35.369Z,3765.3333
2023-04-11T07:39:38.781Z,3147.3333
2023-04-11T07:40:42.215Z,4696.4443
2023-04-11T07:41:45.681Z,5773.7778
2023-04-11T07:42:49.091Z,5422.4443
2023-04-11T07:43:52.512Z,5703.1113
2023-04-11T07:44:55.945Z,8026.4443
2023-04-11T07:45:59.352Z,8479.7773
2023-04-11T07:47:02.834Z,8526.0000
2023-04-11T07:48:06.225Z,6586.2222
2023-04-11T07:49:09.647Z,6207.3335
2023-04-11T07:50:13.047Z,7104.6665
2023-04-11T07:51:16.487Z,7033.5557
2023-04-11T07:52:19.878Z,6788.4443
2023-04-11T07:53:23.363Z,6036.4443
2023-04-11T07:54:26.794Z,6228.2222
2023-04-11T07:55:30.202Z,5616.6665
2023-04-11T07:56:33.633Z,5739.7778
2023-04-11T07:57:33.779Z,5516.7061
2023-04-11T07:58:37.182Z,7273.7778
2023-04-11T07:59:40.687Z,9360.2227
2023-04-11T08:00:40.608Z,8296.9414
2023-04-11T08:01:44.161Z,7369.5557
2023-04-11T08:02:44.322Z,7856.0000
2023-04-11T08:03:44.416Z,7129.6470
2023-04-11T08:04:44.448Z,6392.4707
2023-04-11T08:05:44.710Z,6404.9414
2023-04-11T08:06:44.626Z,7409.8823
2023-04-11T08:07:48.070Z,6559.1113
2023-04-11T08:08:51.519Z,6794.4443
2023-04-11T08:09:54.952Z,5974.0000
2023-04-11T08:10:58.399Z,5776.2222
2023-04-11T08:12:02.036Z,6730.0000
2023-04-11T08:13:02.031Z,7749.8823
2023-04-11T08:14:05.420Z,8182.8887
2023-04-11T08:15:08.874Z,7926.0000
2023-04-11T08:16:12.468Z,8123.3335
2023-04-11T08:17:25.100Z,9331.0586
2023-04-11T08:18:14.749Z,8578.5000
2023-04-11T08:19:18.155Z,7238.4443
2023-04-11T08:20:21.610Z,7380.0000
2023-04-11T08:21:25.006Z,6852.2222
2023-04-11T08:22:28.484Z,6965.7778
2023-04-11T08:23:31.860Z,7704.0000
2023-04-11T08:24:35.288Z,7412.0000
2023-04-11T08:25:39.021Z,6952.0000
2023-04-11T08:26:38.910Z,8589.4121
2023-04-11T08:27:42.340Z,7326.8887
2023-04-11T08:28:45.783Z,6796.2222
2023-04-11T08:29:49.208Z,7841.5557
2023-04-11T08:30:52.750Z,10643.3330
2023-04-11T08:31:52.699Z,11454.8232
2023-04-11T08:32:56.171Z,9781.1113
2023-04-11T08:33:58.297Z,9284.4707
2023-04-11T08:34:56.439Z,11074.7500
2023-04-11T08:35:59.875Z,12606.0000
2023-04-11T08:37:03.292Z,12247.3330
2023-04-11T08:38:06.741Z,11538.6670
2023-04-11T08:39:10.146Z,11546.4443
2023-04-11T08:40:13.599Z,12012.0000
2023-04-11T08:41:17.004Z,11833.5557
2023-04-11T08:42:20.435Z,12114.6670
2023-04-11T08:43:20.456Z,12026.1172
2023-04-11T08:44:23.888Z,11776.2227
2023-04-11T08:45:27.326Z,11358.4443
2023-04-11T08:46:30.892Z,10913.3330
2023-04-11T08:47:31.215Z,11271.7646
2023-04-11T08:48:34.656Z,11678.6670
2023-04-11T08:49:38.126Z,11780.8887
2023-04-11T08:50:41.602Z,11703.3330
2023-04-11T08:51:45.083Z,11729.5557
2023-04-11T08:52:48.565Z,11496.0000
2023-04-11T08:53:52.004Z,11250.2227
2023-04-11T08:54:55.460Z,11470.4443
2023-04-11T08:55:58.928Z,11742.6670
2023-04-11T08:57:02.414Z,11920.4443
2023-04-11T08:58:05.894Z,11984.8887
2023-04-11T08:59:05.838Z,11832.4707
2023-04-11T09:00:09.306Z,12250.6670
2023-04-11T09:01:12.759Z,13824.8887
2023-04-11T09:02:16.297Z,16312.8887
2023-04-11T09:03:16.468Z,18816.0000
2023-04-11T09:04:16.587Z,21857.8828
2023-04-11T09:05:20.044Z,24556.4453
2023-04-11T09:06:23.481Z,24663.1113
2023-04-11T09:07:23.680Z,24741.6465
2023-04-11T09:08:27.124Z,22839.1113
2023-04-11T09:09:30.590Z,21640.8887
2023-04-11T09:10:30.569Z,21536.0000
2023-04-11T09:11:34.017Z,21461.3340
2023-04-11T09:12:34.015Z,19734.5879
2023-04-11T09:13:37.480Z,18364.4453
2023-04-11T09:14:40.963Z,17907.5547
2023-04-11T09:15:41.162Z,18102.5879
2023-04-11T09:16:44.574Z,18904.8887
2023-04-11T09:17:48.085Z,19944.8887
2023-04-11T09:18:48.043Z,19102.1172
2023-04-11T09:19:51.490Z,18776.8887
2023-04-11T09:20:54.950Z,19950.2227
2023-04-11T09:21:54.958Z,22512.9414
2023-04-11T09:22:58.405Z,24396.4453
2023-04-11T09:24:01.845Z,24373.3340
2023-04-11T09:25:05.313Z,22444.4453
2023-04-11T09:26:08.753Z,19859.5547
2023-04-11T09:27:12.230Z,17681.7773
2023-04-11T09:28:15.689Z,16746.6660
2023-04-11T09:29:19.157Z,16531.5547
2023-04-11T09:30:22.650Z,16208.0000
2023-04-11T09:31:22.725Z,15125.1768
2023-04-11T09:32:22.743Z,14118.5879
2023-04-11T09:33:22.827Z,14383.5293
2023-04-11T09:34:22.771Z,15393.4121
2023-04-11T09:35:22.948Z,16423.5293
2023-04-11T09:36:26.397Z,16481.7773
2023-04-11T09:37:29.842Z,15994.6670
2023-04-11T09:38:33.331Z,16012.4443
2023-04-11T09:39:33.288Z,16613.6465
2023-04-11T09:40:36.762Z,16881.7773
2023-04-11T09:41:40.248Z,16542.2227
2023-04-11T09:42:43.655Z,17712.0000
2023-04-11T09:43:47.144Z,19121.7773
2023-04-11T09:44:47.088Z,20001.8828
2023-04-11T09:45:54.411Z,19196.4453
2023-04-11T09:46:51.719Z,18666.0000
2023-04-11T09:47:51.941Z,19424.0000
2023-04-11T09:48:52.043Z,20380.2344
2023-04-11T09:49:55.537Z,21804.4453
2023-04-11T09:50:59.108Z,21800.8887
2023-04-11T09:51:59.184Z,21044.7051
2023-04-11T09:53:02.666Z,20595.5547
2023-04-11T09:54:06.471Z,21228.4453
2023-04-11T09:55:06.793Z,22288.9414
2023-04-11T09:56:10.258Z,23228.4453
2023-04-11T09:57:13.728Z,23733.3340
2023-04-11T09:58:17.176Z,25000.8887
2023-04-11T09:59:20.659Z,28451.5547
2023-04-11T10:00:20.615Z,31083.2949
2023-04-11T10:01:24.121Z,31811.5547
2023-04-11T10:02:24.117Z,31873.8828
2023-04-11T10:03:24.134Z,30928.9414
2023-04-11T10:04:24.139Z,32372.7051
2023-04-11T10:05:27.615Z,35777.7773
2023-04-11T10:06:31.041Z,37541.3320
2023-04-11T10:07:34.534Z,39662.2227
2023-04-11T10:08:37.980Z,42686.2227
2023-04-11T10:09:41.445Z,46376.8906
2023-04-11T10:10:44.893Z,50528.0000
2023-04-11T10:11:48.346Z,49018.6680
2023-04-11T10:12:51.812Z,39192.8906
2023-04-11T10:13:55.548Z,35271.1094
2023-04-11T10:14:55.660Z,35043.7656
2023-04-11T10:15:59.145Z,36387.5547
2023-04-11T10:17:02.570Z,37710.2227
2023-04-11T10:18:06.084Z,39868.4453
2023-04-11T10:19:06.019Z,39442.8242
2023-04-11T10:20:09.513Z,40055.1094
2023-04-11T10:21:09.473Z,39179.2930
2023-04-11T10:22:12.916Z,39651.5547
2023-04-11T10:23:16.411Z,40284.4453
2023-04-11T10:24:19.839Z,40499.5547
2023-04-11T10:25:23.312Z,39079.1094
2023-04-11T10:26:26.786Z,35562.6680
2023-04-11T10:27:30.211Z,32204.4453
2023-04-11T10:28:33.674Z,32558.2227
2023-04-11T10:29:37.141Z,33285.3320
2023-04-11T10:30:40.637Z,33162.6680
2023-04-11T10:31:40.710Z,31561.4121
2023-04-11T10:32:40.748Z,30768.9414
2023-04-11T10:33:40.684Z,29200.9414
2023-04-11T10:34:44.144Z,26896.0000
2023-04-11T10:35:47.625Z,25530.6660
2023-04-11T10:36:51.064Z,24478.2227
2023-04-11T10:37:54.508Z,22721.7773
2023-04-11T10:38:57.970Z,20344.8887
2023-04-11T10:40:01.424Z,18487.1113
2023-04-11T10:41:04.891Z,18001.7773
2023-04-11T10:42:08.342Z,18355.5547
2023-04-11T10:43:11.792Z,16874.6660
2023-04-11T10:44:15.280Z,15016.0000
2023-04-11T10:45:18.725Z,14265.1113
2023-04-11T10:46:22.257Z,14685.1113
2023-04-11T10:47:22.236Z,15638.5879
2023-04-11T10:48:25.696Z,15147.7773
2023-04-11T10:49:29.140Z,14001.3330
2023-04-11T10:50:32.614Z,13735.1113
2023-04-11T10:51:36.092Z,14166.6670
2023-04-11T10:52:36.072Z,13789.1768
2023-04-11T10:53:39.511Z,12222.0000
2023-04-11T10:54:42.983Z,11644.4443
2023-04-11T10:55:46.420Z,13288.6670
2023-04-11T10:56:49.882Z,16296.0000
2023-04-11T10:57:53.360Z,18188.4453
2023-04-11T10:58:56.798Z,19735.1113
2023-04-11T11:00:00.260Z,21285.3340
2023-04-11T11:01:03.740Z,21818.6660
2023-04-11T11:02:07.328Z,21521.7773
2023-04-11T11:03:07.397Z,20250.3535
2023-04-11T11:04:07.639Z,17396.7051
2023-04-11T11:05:07.763Z,15346.1172
2023-04-11T11:06:11.201Z,14509.5557
2023-04-11T11:07:14.667Z,14332.0000
2023-04-11T11:08:18.163Z,15010.6670
2023-04-11T11:09:18.106Z,14920.9414
2023-04-11T11:10:21.563Z,13678.0000
2023-04-11T11:11:25.003Z,12502.0000
2023-04-11T11:12:28.464Z,12230.0000
2023-04-11T11:13:31.899Z,12418.8887
2023-04-11T11:14:35.349Z,12337.3330
2023-04-11T11:15:35.580Z,11919.7646
2023-04-11T11:16:39.079Z,11531.3330
2023-04-11T11:17:42.545Z,11196.0000
2023-04-11T11:18:42.502Z,10652.0000
2023-04-11T11:19:45.989Z,10342.4443
2023-04-11T11:20:49.396Z,9958.8887
2023-04-11T11:21:52.862Z,9580.4443
2023-04-11T11:22:56.524Z,9636.4443
2023-04-11T11:23:56.621Z,10407.7646
2023-04-11T11:24:56.765Z,10446.8232
2023-04-11T11:26:00.223Z,9196.0000
2023-04-11T11:27:03.677Z,8281.7773
2023-04-11T11:28:03.643Z,7876.2354
2023-04-11T11:29:07.126Z,7543.7778
2023-04-11T11:30:10.551Z,7794.6665
2023-04-11T11:31:14.028Z,8066.2222
2023-04-11T11:32:17.474Z,7396.0000
2023-04-11T11:33:17.531Z,6855.7646
2023-04-11T11:35:20.304Z,7395.2939
2023-04-11T11:36:23.759Z,7946.4443
2023-04-11T11:37:27.209Z,8700.2227
2023-04-11T11:38:30.690Z,8951.1113
2023-04-11T11:39:30.668Z,9327.7646
2023-04-11T11:40:34.146Z,10003.1113
2023-04-11T11:41:37.587Z,10732.8887
2023-04-11T11:42:41.005Z,11995.3330
2023-04-11T11:43:44.481Z,14429.3330
2023-04-11T11:44:47.915Z,16572.4453
2023-04-11T11:45:51.395Z,17879.1113
2023-04-11T11:46:54.824Z,19004.4453
2023-04-11T11:47:58.384Z,19776.0000
2023-04-11T11:48:58.662Z,20523.2949
2023-04-11T11:49:58.754Z,20521.4121
2023-04-11T11:51:02.247Z,19392.0000
2023-04-11T11:52:05.681Z,17347.5547
2023-04-11T11:53:09.152Z,15262.6670
2023-04-11T11:54:12.619Z,14381.1113
2023-04-11T11:55:16.092Z,14254.6670
2023-04-11T11:56:19.552Z,14708.8887
2023-04-11T11:57:23.000Z,16170.2227
2023-04-11T11:58:26.468Z,17733.3340
2023-04-11T11:59:29.921Z,18337.7773
2023-04-11T12:00:33.371Z,17911.1113
2023-04-11T12:01:37.017Z,16547.5547
2023-04-11T12:02:37.184Z,15539.0586
2023-04-11T12:03:37.592Z,15137.6475
2023-04-11T12:04:37.793Z,15539.5293
2023-04-11T12:05:38.039Z,16101.6475
2023-04-11T12:06:38.032Z,16641.8828
2023-04-11T12:07:41.508Z,17013.3340
2023-04-11T12:08:46.395Z,16892.4453
2023-04-11T12:09:47.415Z,16205.1768
2023-04-11T12:10:47.379Z,15293.1768
2023-04-11T12:11:50.827Z,14891.3330
2023-04-11T12:12:54.331Z,15031.7773
2023-04-11T12:13:54.477Z,15446.1172
2023-04-11T12:14:54.732Z,16144.9414